KSUU/SUU METAR and TAF weather

Enter ICAO airport designator
Station Type Date Time Source
KSUU METAR 2021/04/13 05:58 UTC NOAA

KSUU 130558Z AUTO 22017G25KT 10SM CLR 13/07 A2977 RMK AO2 SLP088 T01250072 10275 20125 52007 $


Station Type Date Time Source
KSUU Decoded METAR 2021/04/13 05:58 UTC NOAA

Fairfield / Travis Air Force Base, CA, United States (KSUU) 38-16N 121-57W 22M
Apr 13, 2021 - 01:58 AM EDT / 2021.04.13 0558 UTC
Wind: from the SW (220 degrees) at 20 MPH (17 KT) gusting to 29 MPH (25 KT):0
Visibility: 10 mile(s):0
Sky conditions: clear
Temperature: 54.5 F (12.5 C)
Dew Point: 45.0 F (7.2 C)
Relative Humidity: 70%
Pressure (altimeter): 29.77 in. Hg (1008 hPa)
Pressure tendency: 0.02 inches (0.7 hPa) higher than three hours ago
ob: KSUU 130558Z AUTO 22017G25KT 10SM CLR 13/07 A2977 RMK AO2 SLP088 T01250072 10275 20125 52007
cycle: 6

Station Type Date Time Source
KSUU TAF 2021/04/13 03:12 UTC NOAA

TAF KSUU 130300Z 1303/1409 24015G25KT 9999 FEW200 QNH2975INS
BECMG 1320/1321 26012G18KT 9999 SKC QNH2972INS
BECMG 1400/1401 26015G25KT 9999 SKC QNH2975INS TX25/1322Z TN08/1313Z

Example: see airport list